Time;durP1;ratioP1;P1;durP2;ratioP2;P2;SDS_P1;SDS_P2;PMS_P1;PMS_P2;Temp;Humidity;BMP_temperature;BMP_pressure;BME280_temperature;BME280_humidity;BME280_pressure;Samples;Min_cycle;Max_cycle;Signal;HPM_P1;HPM_P2
2022/03/22 00:00:25;;;;;;;31.83;28.60;;;;;;;1.78;49.79;96339.75;5014882;28;20241;-67
2022/03/22 00:02:52;;;;;;;28.92;25.85;;;;;;;1.80;49.90;96340.31;5015093;28;20305;-67
2022/03/22 00:05:18;;;;;;;29.10;26.30;;;;;;;1.81;49.81;96341.94;4997889;28;20207;-67
2022/03/22 00:07:45;;;;;;;26.77;24.35;;;;;;;1.84;49.51;96342.22;4998105;28;20199;-68
2022/03/22 00:10:14;;;;;;;28.45;25.75;;;;;;;1.89;49.11;96347.69;4997752;28;20199;-68
2022/03/22 00:12:42;;;;;;;26.98;24.35;;;;;;;1.84;49.42;96339.50;4998073;28;20206;-68
2022/03/22 00:15:10;;;;;;;26.95;24.45;;;;;;;1.83;49.36;96337.06;5015009;28;20210;-68
2022/03/22 00:17:38;;;;;;;28.02;25.13;;;;;;;1.86;49.54;96337.34;4998475;28;20203;-68
2022/03/22 00:20:07;;;;;;;26.75;24.15;;;;;;;1.91;49.51;96337.34;4997803;28;20205;-68
2022/03/22 00:22:35;;;;;;;25.92;23.42;;;;;;;1.97;49.73;96340.94;4997875;28;20280;-68
2022/03/22 00:25:02;;;;;;;27.27;24.60;;;;;;;2.02;50.02;96329.22;4997358;28;20210;-68
2022/03/22 00:27:50;;;;;;;28.20;25.40;;;;;;;1.98;50.07;96328.13;4997675;28;20183;-68
2022/03/22 00:30:17;;;;;;;27.17;24.52;;;;;;;1.92;50.27;96322.69;5014480;28;20639;-68
2022/03/22 00:32:44;;;;;;;27.02;24.30;;;;;;;1.93;49.71;96321.59;5014950;28;20195;-67
2022/03/22 00:35:11;;;;;;;26.25;23.75;;;;;;;2.00;49.55;96328.66;5014862;28;20194;-67
2022/03/22 00:37:40;;;;;;;26.35;23.65;;;;;;;1.97;50.33;96324.59;5001075;28;20213;-68
2022/03/22 00:40:09;;;;;;;25.52;23.02;;;;;;;1.94;50.55;96325.13;5018428;28;20191;-68
2022/03/22 00:42:36;;;;;;;24.85;22.45;;;;;;;1.84;50.69;96315.03;5001122;28;20199;-68
2022/03/22 00:45:03;;;;;;;24.75;22.35;;;;;;;1.85;51.16;96321.28;5018391;28;20192;-68
2022/03/22 00:47:31;;;;;;;25.13;22.60;;;;;;;1.85;51.35;96319.41;5018318;28;20197;-68
2022/03/22 00:49:58;;;;;;;23.88;21.58;;;;;;;1.84;50.80;96315.03;5001097;28;20206;-68
2022/03/22 00:52:25;;;;;;;25.65;23.17;;;;;;;1.86;50.69;96321.03;5001074;28;20199;-68
2022/03/22 00:54:53;;;;;;;24.45;22.15;;;;;;;1.91;50.54;96322.94;5018138;28;20199;-68
2022/03/22 00:57:19;;;;;;;22.60;20.30;;;;;;;1.91;49.54;96317.50;5018148;28;20194;-68
2022/03/22 01:00:05;;;;;;;24.88;22.48;;;;;;;1.98;50.54;96312.63;5000673;28;20234;-68
2022/03/22 01:02:37;;;;;;;23.60;21.30;;;;;;;2.02;50.30;96312.91;5017855;28;20191;-68
2022/03/22 01:05:06;;;;;;;24.02;21.83;;;;;;;2.02;50.88;96321.88;5017845;28;20195;-68
2022/03/22 01:07:33;;;;;;;23.67;21.38;;;;;;;2.00;50.83;96309.63;5000733;28;20634;-68
2022/03/22 01:10:00;;;;;;;22.05;20.05;;;;;;;2.02;50.78;96302.81;5001197;28;20202;-68
2022/03/22 01:12:27;;;;;;;22.30;20.13;;;;;;;2.01;51.13;96306.66;5000653;28;20195;-68
2022/03/22 01:14:55;;;;;;;21.23;19.25;;;;;;;2.03;50.86;96299.00;5017939;28;20192;-68
2022/03/22 01:17:22;;;;;;;20.55;18.52;;;;;;;1.98;50.46;96301.72;5017735;28;20179;-68
2022/03/22 01:19:50;;;;;;;21.83;19.60;;;;;;;1.88;50.21;96294.34;5000543;28;20209;-68
2022/03/22 01:22:17;;;;;;;21.48;19.35;;;;;;;1.82;50.24;96300.06;5000451;28;20207;-68
2022/03/22 01:24:44;;;;;;;20.85;18.67;;;;;;;1.77;50.56;96302.75;5017575;28;20219;-68
2022/03/22 01:27:11;;;;;;;21.25;19.25;;;;;;;1.77;49.88;96295.41;5000371;28;20195;-69
2022/03/22 01:29:38;;;;;;;20.63;18.63;;;;;;;1.83;49.52;96299.78;5000621;28;20203;-69
2022/03/22 01:32:06;;;;;;;20.83;18.83;;;;;;;1.96;49.76;96295.75;5017485;28;20191;-69
2022/03/22 01:34:33;;;;;;;22.35;20.10;;;;;;;1.88;50.15;96293.53;5017441;28;20187;-69
2022/03/22 01:37:01;;;;;;;21.42;19.13;;;;;;;1.86;49.97;96295.72;5000370;28;20203;-69
2022/03/22 01:39:28;;;;;;;19.98;18.10;;;;;;;1.90;49.54;96294.91;5017319;28;20195;-69
2022/03/22 01:41:55;;;;;;;20.35;18.35;;;;;;;1.92;49.29;96295.47;5016974;28;20198;-69
2022/03/22 01:44:21;;;;;;;20.85;18.75;;;;;;;1.96;48.76;96289.47;5017161;28;20203;-69
2022/03/22 01:46:48;;;;;;;19.88;17.92;;;;;;;1.99;48.99;96289.75;5016787;28;20191;-69
2022/03/22 01:49:15;;;;;;;20.25;18.15;;;;;;;2.03;48.87;96279.16;5016281;28;20202;-69
2022/03/22 01:51:42;;;;;;;20.02;18.02;;;;;;;2.04;49.95;96278.91;5017236;28;20202;-69
2022/03/22 01:54:13;;;;;;;21.60;19.55;;;;;;;2.03;50.20;96281.88;5000186;28;20209;-69
2022/03/22 01:56:40;;;;;;;20.55;18.45;;;;;;;2.04;49.51;96284.34;4999759;28;20200;-69
2022/03/22 01:59:07;;;;;;;19.90;17.92;;;;;;;2.06;50.41;96287.59;4999527;28;20681;-69
2022/03/22 02:07:04;;;;;;;19.67;17.88;;;;;;;1.93;50.11;96277.25;5016612;28;20179;-68
2022/03/22 02:09:32;;;;;;;21.13;18.95;;;;;;;2.03;50.47;96274.53;5016752;28;20194;-68
2022/03/22 02:11:59;;;;;;;20.17;18.15;;;;;;;2.00;50.80;96271.53;4999622;28;20191;-68
2022/03/22 02:14:26;;;;;;;20.23;18.23;;;;;;;1.95;50.87;96271.53;5016720;28;20187;-68
2022/03/22 02:16:54;;;;;;;20.55;18.55;;;;;;;1.95;50.28;96280.50;5016320;28;20193;-68
2022/03/22 02:19:21;;;;;;;19.08;17.27;;;;;;;2.01;50.04;96278.63;4999333;28;20237;-67
2022/03/22 02:21:54;;;;;;;17.15;15.55;;;;;;;2.15;47.85;96266.13;5016594;28;20282;-67
2022/03/22 02:24:22;;;;;;;16.58;15.07;;;;;;;2.23;46.91;96265.59;4999677;28;20229;-68
2022/03/22 02:26:49;;;;;;;17.70;16.00;;;;;;;2.28;47.55;96254.69;4998919;28;20654;-67
2022/03/22 02:29:17;;;;;;;17.88;16.08;;;;;;;2.28;47.89;96259.31;4999125;28;20210;-68
2022/03/22 02:31:44;;;;;;;20.20;18.25;;;;;;;2.31;49.40;96264.22;5016445;28;20186;-69
2022/03/22 02:34:11;;;;;;;20.33;18.33;;;;;;;2.20;49.72;96263.41;5016294;28;20179;-69
2022/03/22 02:36:38;;;;;;;18.80;16.90;;;;;;;2.10;48.97;96264.19;5016603;28;20202;-68
2022/03/22 02:39:05;;;;;;;19.98;17.98;;;;;;;2.06;49.56;96262.28;4998985;28;20216;-68
2022/03/22 02:41:33;;;;;;;19.17;17.35;;;;;;;2.05;49.64;96258.75;5016380;28;20205;-68
2022/03/22 02:44:00;;;;;;;18.10;16.25;;;;;;;2.09;48.81;96264.47;5015951;28;20207;-68
2022/03/22 02:46:26;;;;;;;18.50;16.70;;;;;;;2.08;49.81;96263.66;5015820;28;20551;-69
2022/03/22 02:48:54;;;;;;;18.30;16.48;;;;;;;1.99;49.67;96267.97;4998891;28;20206;-69
2022/03/22 02:51:21;;;;;;;18.42;16.55;;;;;;;1.93;50.41;96274.53;5016002;28;20198;-69
2022/03/22 02:53:48;;;;;;;17.75;16.08;;;;;;;1.88;50.33;96264.44;4998452;28;20198;-68
2022/03/22 02:56:15;;;;;;;17.90;16.05;;;;;;;1.85;50.09;96270.44;4998668;28;20206;-68
2022/03/22 02:58:43;;;;;;;17.60;15.85;;;;;;;1.88;50.72;96269.06;5015807;28;20184;-68
2022/03/22 03:01:10;;;;;;;16.48;14.98;;;;;;;1.89;49.99;96279.69;5015518;28;20191;-68
2022/03/22 03:03:37;;;;;;;17.42;15.70;;;;;;;1.79;49.63;96282.38;4999224;28;20229;-69
2022/03/22 03:06:04;;;;;;;17.15;15.35;;;;;;;1.70;49.74;96278.53;5015630;28;20179;-68
2022/03/22 03:08:31;;;;;;;16.40;14.77;;;;;;;1.68;50.27;96286.16;4998883;28;20191;-67
2022/03/22 03:10:58;;;;;;;17.02;15.32;;;;;;;1.68;50.04;96283.44;4998600;28;20289;-67
2022/03/22 03:13:25;;;;;;;16.80;15.25;;;;;;;1.67;50.35;96279.03;5015692;28;20191;-67
2022/03/22 03:15:53;;;;;;;16.98;15.32;;;;;;;1.66;50.35;96274.69;4998656;28;20199;-67
2022/03/22 03:18:20;;;;;;;16.73;15.13;;;;;;;1.67;50.75;96269.00;5015298;28;20183;-67
2022/03/22 03:20:47;;;;;;;15.95;14.45;;;;;;;1.55;50.95;96273.84;5015356;28;20197;-68
2022/03/22 03:23:14;;;;;;;17.08;15.40;;;;;;;1.43;51.21;96271.34;4998351;28;20199;-68
2022/03/22 03:25:41;;;;;;;16.63;14.90;;;;;;;1.38;51.37;96268.63;4998856;28;20226;-68
2022/03/22 03:28:09;;;;;;;17.77;15.90;;;;;;;1.35;50.87;96268.34;5015485;28;20210;-68
2022/03/22 03:30:36;;;;;;;20.33;18.33;;;;;;;1.44;50.48;96267.53;4998243;28;20199;-68
2022/03/22 03:33:04;;;;;;;20.60;18.38;;;;;;;1.39;49.92;96274.88;5015175;28;20179;-68
2022/03/22 03:35:31;;;;;;;20.35;18.25;;;;;;;1.40;49.28;96271.88;4998202;28;20195;-69
2022/03/22 03:37:58;;;;;;;19.00;17.20;;;;;;;1.48;49.56;96270.56;5015147;28;20529;-68
2022/03/22 03:41:53;;;;;;;20.75;18.75;;;;;;;1.54;49.08;96271.41;4998150;28;20633;-68
2022/03/22 03:43:11;;;;;;;22.35;20.20;;;;;;;1.51;49.80;96270.03;4997555;28;20214;-69
2022/03/22 03:48:23;;;;;;;19.55;17.48;;;;;;;1.31;50.83;96272.69;4998331;28;20200;-69
2022/03/22 03:50:50;;;;;;;20.15;17.10;;;;;;;1.27;51.03;96275.09;4998068;28;20199;-67
2022/03/22 03:53:17;;;;;;;19.25;17.20;;;;;;;1.27;50.93;96274.25;5015284;28;20193;-67
2022/03/22 03:55:44;;;;;;;18.30;16.42;;;;;;;1.26;50.90;96267.19;5015028;28;20179;-67
2022/03/22 03:58:10;;;;;;;19.65;17.83;;;;;;;1.27;51.55;96268.81;5015213;28;20206;-67
2022/03/22 04:00:37;;;;;;;18.52;16.70;;;;;;;1.22;51.06;96269.63;5014829;28;20239;-67
2022/03/22 04:03:04;;;;;;;19.48;17.52;;;;;;;1.16;51.58;96267.97;5015219;28;20189;-67
2022/03/22 04:05:32;;;;;;;18.00;16.13;;;;;;;1.11;50.83;96271.47;5014818;28;20203;-67
2022/03/22 04:07:59;;;;;;;18.38;16.50;;;;;;;1.06;51.54;96276.88;4998410;28;20235;-67
2022/03/22 04:10:26;;;;;;;20.00;17.90;;;;;;;1.05;50.89;96272.50;5015084;28;20528;-67
2022/03/22 04:12:53;;;;;;;19.67;17.55;;;;;;;1.07;51.08;96275.81;5018853;28;20183;-68
2022/03/22 04:15:20;;;;;;;20.60;18.38;;;;;;;1.09;51.17;96278.25;5001517;28;20581;-68
2022/03/22 04:17:48;;;;;;;31.13;28.33;;;;;;;1.12;50.75;96278.53;5002010;28;20203;-68
2022/03/22 04:20:14;;;;;;;19.10;17.13;;;;;;;1.13;50.89;96279.38;5018894;28;20241;-68
2022/03/22 04:22:43;;;;;;;18.55;15.00;;;;;;;1.13;50.22;96269.31;5018794;28;20197;-68
2022/03/22 04:25:10;;;;;;;16.88;14.73;;;;;;;1.14;49.71;96270.13;5018653;28;20203;-67
2022/03/22 04:33:05;;;;;;;19.30;16.58;;;;;;;1.11;51.06;96281.53;5018301;28;20175;-68
2022/03/22 04:35:32;;;;;;;22.10;17.08;;;;;;;1.00;51.18;96277.13;5001096;28;20536;-68
2022/03/22 04:38:00;;;;;;;19.83;15.93;;;;;;;0.96;51.15;96276.81;5001243;28;20291;-68
2022/03/22 04:40:27;;;;;;;20.02;16.90;;;;;;;0.93;51.17;96272.72;5001201;28;20203;-68
2022/03/22 04:42:55;;;;;;;20.40;16.60;;;;;;;0.95;51.40;96278.72;5018421;28;20210;-67
2022/03/22 04:45:23;;;;;;;18.55;16.00;;;;;;;0.94;51.56;96271.66;5018321;28;20203;-68
2022/03/22 04:47:49;;;;;;;20.08;15.68;;;;;;;1.00;50.26;96271.69;5018053;28;20597;-68
2022/03/22 04:50:18;;;;;;;24.38;16.17;;;;;;;1.04;50.10;96272.78;5018338;28;20183;-68
2022/03/22 04:58:15;;;;;;;20.15;15.20;;;;;;;1.13;49.33;96274.75;5018072;28;20186;-68
2022/03/22 05:00:42;;;;;;;15.82;12.93;;;;;;;1.25;48.83;96265.56;5000552;28;20246;-72
2022/03/22 05:03:08;;;;;;;17.02;13.55;;;;;;;1.41;47.79;96270.78;5017779;28;20183;-68
2022/03/22 05:08:19;;;;;;;18.75;15.63;;;;;;;1.65;49.64;96276.59;5017933;28;20642;-68
2022/03/22 05:10:48;;;;;;;26.17;18.75;;;;;;;1.58;49.48;96281.47;5017650;28;20505;-73
2022/03/22 05:13:14;;;;;;;26.60;18.80;;;;;;;1.46;50.23;96280.91;5000295;28;20213;-69
2022/03/22 05:15:41;;;;;;;26.55;18.80;;;;;;;1.44;50.28;96275.69;5018094;28;20198;-71
2022/03/22 05:18:08;;;;;;;23.65;18.77;;;;;;;1.48;50.06;96269.75;5000836;28;20207;-68
2022/03/22 05:20:35;;;;;;;22.88;17.10;;;;;;;1.57;49.07;96276.31;5017912;28;20198;-68
2022/03/22 05:23:02;;;;;;;17.05;15.43;;;;;;;1.76;47.16;96273.94;5017635;28;20194;-68
2022/03/22 05:25:31;;;;;;;18.38;14.93;;;;;;;1.91;47.10;96280.22;5000325;28;20215;-68
2022/03/22 05:28:00;;;;;;;16.52;14.82;;;;;;;2.08;45.36;96273.72;4999981;28;20278;-69
2022/03/22 05:30:27;;;;;;;19.92;15.68;;;;;;;2.19;45.78;96267.22;5000583;28;20191;-69
2022/03/22 05:32:54;;;;;;;17.70;14.82;;;;;;;2.27;45.87;96269.41;5017280;28;20206;-69
2022/03/22 05:35:21;;;;;;;21.23;18.13;;;;;;;2.33;48.49;96268.31;5000139;28;20359;-69
2022/03/22 05:37:48;;;;;;;21.95;18.52;;;;;;;2.34;49.07;96264.50;5017447;28;20603;-69
2022/03/22 05:40:16;;;;;;;16.35;14.65;;;;;;;2.49;45.89;96263.69;5017453;28;20193;-69
2022/03/22 05:42:43;;;;;;;20.83;16.23;;;;;;;2.70;46.29;96267.22;5000104;28;20297;-68
2022/03/22 05:45:12;;;;;;;29.23;25.23;;;;;;;2.71;47.40;96262.59;4999974;28;20225;-68
2022/03/22 05:47:39;;;;;;;28.30;21.75;;;;;;;2.70;47.57;96263.69;5017178;28;20197;-69
2022/03/22 05:50:07;;;;;;;25.73;20.73;;;;;;;2.72;47.67;96267.75;5000082;28;20218;-68
2022/03/22 05:52:34;;;;;;;18.83;16.92;;;;;;;2.85;46.09;96252.78;5000158;28;20214;-68
2022/03/22 05:55:01;;;;;;;18.55;16.65;;;;;;;3.00;46.05;96250.00;4999875;28;20191;-68
2022/03/22 05:57:28;;;;;;;14.52;13.02;;;;;;;3.26;43.67;96255.41;5016967;28;20203;-68
2022/03/22 05:59:54;;;;;;;14.27;11.70;;;;;;;3.52;41.51;96251.50;5016679;28;20246;-68
2022/03/22 06:02:23;;;;;;;13.25;11.88;;;;;;;3.73;40.78;96257.66;4999712;28;20214;-68
2022/03/22 06:04:49;;;;;;;12.10;10.90;;;;;;;3.88;39.93;96259.50;4999798;28;20207;-68
2022/03/22 06:07:18;;;;;;;12.63;11.32;;;;;;;4.01;40.17;96249.88;4999544;28;20203;-69
2022/03/22 06:09:45;;;;;;;12.13;10.90;;;;;;;4.13;39.91;96252.25;5016847;28;20230;-70
2022/03/22 06:12:12;;;;;;;12.40;11.10;;;;;;;4.23;39.06;96244.81;5000183;28;20305;-71
2022/03/22 06:14:39;;;;;;;13.65;12.23;;;;;;;4.35;39.03;96242.53;5017121;28;20198;-69
2022/03/22 06:17:06;;;;;;;12.98;11.77;;;;;;;4.45;38.17;96249.03;5016975;28;20179;-68
2022/03/22 06:19:34;;;;;;;14.80;11.40;;;;;;;4.56;38.52;96253.31;5016821;28;20195;-68
2022/03/22 06:22:02;;;;;;;12.20;11.02;;;;;;;4.64;37.64;96249.16;5017054;28;20195;-69
2022/03/22 06:24:29;;;;;;;11.85;10.70;;;;;;;4.72;37.38;96248.53;4999641;28;20660;-68
2022/03/22 06:26:55;;;;;;;10.77;9.68;;;;;;;4.82;37.38;96251.16;5016693;28;20202;-68
2022/03/22 06:29:22;;;;;;;11.18;10.07;;;;;;;4.90;37.14;96244.25;5016526;28;20577;-70
2022/03/22 06:31:49;;;;;;;11.77;10.57;;;;;;;4.96;36.58;96246.66;5000002;28;20206;-70
2022/03/22 06:34:16;;;;;;;11.07;10.18;;;;;;;5.02;36.27;96247.44;5016233;28;20183;-69
2022/03/22 06:36:44;;;;;;;10.90;9.90;;;;;;;5.07;36.33;96253.66;5016780;28;20214;-69
2022/03/22 06:39:11;;;;;;;11.50;10.38;;;;;;;5.11;36.25;96240.22;4999009;28;20603;-69
2022/03/22 06:41:38;;;;;;;11.32;10.25;;;;;;;5.16;36.49;96242.13;4999763;28;20214;-68
2022/03/22 06:44:05;;;;;;;10.55;9.55;;;;;;;5.23;36.53;96242.59;4999868;28;20201;-70
2022/03/22 06:46:32;;;;;;;11.00;9.95;;;;;;;5.28;36.20;96246.06;4999522;28;20234;-71
2022/03/22 06:48:59;;;;;;;11.50;10.43;;;;;;;5.38;36.66;96241.59;4999072;28;20202;-69
2022/03/22 06:51:26;;;;;;;11.23;10.10;;;;;;;5.44;35.79;96238.47;5016067;28;20187;-69
2022/03/22 06:53:54;;;;;;;11.45;10.45;;;;;;;5.52;35.75;96242.53;5015910;28;20198;-69
2022/03/22 06:56:22;;;;;;;11.70;10.60;;;;;;;5.60;35.74;96249.28;5016687;28;20197;-69
2022/03/22 06:58:50;;;;;;;12.52;11.27;;;;;;;5.67;36.16;96245.06;5016086;28;20183;-70
2022/03/22 07:01:17;;;;;;;11.95;10.95;;;;;;;5.76;35.69;96240.56;5015802;28;20585;-70
2022/03/22 07:03:44;;;;;;;11.93;10.70;;;;;;;5.80;35.20;96238.84;5015988;28;20199;-70
2022/03/22 07:06:10;;;;;;;12.57;11.27;;;;;;;5.91;35.78;96242.28;5016170;28;20207;-70
2022/03/22 07:08:37;;;;;;;13.00;11.65;;;;;;;5.96;34.83;96236.78;5015834;28;20195;-71
2022/03/22 07:13:50;;;;;;;12.93;11.65;;;;;;;6.12;34.35;96234.63;5016051;28;20254;-71
2022/03/22 07:16:17;;;;;;;12.43;11.20;;;;;;;6.24;34.47;96229.50;5015563;28;20202;-71
2022/03/22 07:18:44;;;;;;;13.98;12.05;;;;;;;6.31;34.21;96234.63;4998779;28;20294;-71
2022/03/22 07:21:10;;;;;;;11.82;10.70;;;;;;;6.35;32.97;96238.38;4998832;28;20195;-71
2022/03/22 07:23:38;;;;;;;11.60;10.60;;;;;;;6.39;33.30;96228.47;5016239;28;20183;-71
2022/03/22 07:26:06;;;;;;;11.93;10.73;;;;;;;6.49;33.74;96233.78;4998592;28;20215;-72
2022/03/22 07:28:34;;;;;;;11.70;10.57;;;;;;;6.54;32.96;96221.94;4998708;28;20203;-71
2022/03/22 07:31:00;;;;;;;11.73;10.57;;;;;;;6.61;33.38;96229.75;4998874;28;20196;-72
2022/03/22 07:33:27;;;;;;;11.88;10.77;;;;;;;6.67;33.01;96228.56;5015834;28;20198;-69
2022/03/22 07:35:54;;;;;;;11.25;10.25;;;;;;;6.72;33.70;96223.84;4998803;28;20198;-70
2022/03/22 07:38:21;;;;;;;12.05;11.05;;;;;;;6.73;33.20;96219.97;4998675;28;20191;-69
2022/03/22 07:40:48;;;;;;;11.75;10.65;;;;;;;6.76;32.77;96221.31;4998501;28;20210;-68
2022/03/22 07:43:16;;;;;;;11.98;10.88;;;;;;;6.84;32.42;96217.06;4998216;28;20191;-69
2022/03/22 07:45:44;;;;;;;11.90;10.90;;;;;;;6.88;32.32;96207.91;5016380;28;20226;-68
2022/03/22 07:48:10;;;;;;;12.02;10.93;;;;;;;6.99;32.89;96203.06;5019559;28;20194;-69
2022/03/22 07:53:21;;;;;;;12.90;11.70;;;;;;;7.13;32.57;96203.09;5019493;28;20221;-70
2022/03/22 07:55:48;;;;;;;11.23;10.13;;;;;;;7.12;32.80;96204.22;5019726;28;20214;-69
2022/03/22 07:58:16;;;;;;;12.38;11.27;;;;;;;7.19;33.16;96196.41;5002279;28;20199;-69
2022/03/22 08:00:43;;;;;;;12.68;11.48;;;;;;;7.22;33.56;96206.75;5019270;28;20245;-69
2022/03/22 08:03:13;;;;;;;12.95;11.50;;;;;;;7.22;33.68;96207.53;5002063;28;20198;-69
2022/03/22 08:05:40;;;;;;;12.50;11.40;;;;;;;7.15;32.78;96200.84;5019085;28;20213;-69
2022/03/22 08:08:08;;;;;;;12.85;11.65;;;;;;;7.20;33.26;96207.06;5002112;28;20202;-69
2022/03/22 08:10:35;;;;;;;12.60;11.38;;;;;;;7.27;33.04;96209.41;5001743;28;20206;-69
2022/03/22 08:13:02;;;;;;;12.40;11.20;;;;;;;7.32;33.36;96203.81;5002043;28;20199;-69
2022/03/22 08:15:30;;;;;;;12.30;10.93;;;;;;;7.41;34.23;96201.19;5018973;28;20283;-72
2022/03/22 08:17:57;;;;;;;11.98;10.77;;;;;;;7.50;33.90;96195.78;5002233;28;20210;-74
2022/03/22 08:20:27;;;;;;;11.60;10.52;;;;;;;7.57;34.33;96204.41;5019395;28;20187;-74
2022/03/22 08:22:57;;;;;;;12.48;11.15;;;;;;;7.63;34.57;96201.28;5001581;28;20195;-73
2022/03/22 08:25:27;;;;;;;11.88;10.73;;;;;;;7.67;34.40;96207.75;5001638;28;20284;-74
2022/03/22 08:27:54;;;;;;;16.85;15.25;;;;;;;7.69;34.83;96204.69;5001690;28;20206;-74
2022/03/22 08:30:22;;;;;;;15.02;13.45;;;;;;;7.70;34.62;96198.09;5001701;28;20211;-73
2022/03/22 08:32:51;;;;;;;13.98;12.57;;;;;;;7.71;34.79;96200.53;5001825;28;20203;-73
2022/03/22 08:35:18;;;;;;;14.57;13.13;;;;;;;7.72;34.84;96193.91;5018408;28;20186;-73
2022/03/22 08:37:45;;;;;;;13.38;12.00;;;;;;;7.69;35.41;96197.28;5001631;28;20195;-73
2022/03/22 08:40:15;;;;;;;12.23;11.07;;;;;;;7.58;35.49;96184.88;5001456;28;20642;-74
2022/03/22 08:42:43;;;;;;;14.65;11.80;;;;;;;7.61;35.56;96197.19;5001769;28;20202;-73
2022/03/22 08:45:12;;;;;;;13.95;12.52;;;;;;;7.60;35.71;96201.06;5000946;28;20268;-74
2022/03/22 08:47:40;;;;;;;14.90;13.40;;;;;;;7.63;35.78;96194.97;5018471;28;20290;-74
2022/03/22 08:50:10;;;;;;;15.93;14.32;;;;;;;7.65;35.65;96201.75;5018656;28;20199;-71
2022/03/22 08:52:36;;;;;;;15.40;13.77;;;;;;;7.68;36.04;96190.16;5001483;28;20211;-71
2022/03/22 08:55:03;;;;;;;16.33;14.55;;;;;;;7.75;36.35;96187.00;5001117;28;20194;-72
2022/03/22 08:57:30;;;;;;;12.65;11.55;;;;;;;7.79;35.88;96188.00;5018098;28;20188;-71
2022/03/22 08:59:58;;;;;;;14.00;12.18;;;;;;;7.83;36.42;96185.47;5001001;28;20235;-71
2022/03/22 09:02:24;;;;;;;12.70;11.43;;;;;;;7.79;36.32;96195.44;5018273;28;20219;-72
2022/03/22 09:07:37;;;;;;;12.45;10.73;;;;;;;7.91;36.84;96179.22;5001741;28;20199;-72
2022/03/22 09:10:04;;;;;;;12.90;11.55;;;;;;;7.91;37.17;96174.53;5000682;28;20199;-70
2022/03/22 09:12:30;;;;;;;13.45;12.15;;;;;;;7.92;37.36;96169.91;5001049;28;20214;-70
2022/03/22 09:14:58;;;;;;;13.25;12.10;;;;;;;7.87;37.47;96164.50;5000898;28;20203;-71
2022/03/22 09:17:25;;;;;;;13.70;12.32;;;;;;;7.79;37.21;96165.22;5000730;28;20213;-70
2022/03/22 09:19:51;;;;;;;13.43;12.10;;;;;;;7.78;36.77;96167.16;5000981;28;20195;-70
2022/03/22 09:22:18;;;;;;;12.43;11.18;;;;;;;7.82;37.01;96170.13;5000703;28;20195;-70
2022/03/22 09:24:46;;;;;;;12.88;11.57;;;;;;;7.85;37.03;96175.00;5017849;28;20210;-71
2022/03/22 09:27:13;;;;;;;12.82;11.52;;;;;;;7.83;36.97;96171.72;5000688;28;20543;-73
2022/03/22 09:29:40;;;;;;;13.40;12.20;;;;;;;7.82;36.83;96162.69;5017577;28;20179;-71
2022/03/22 09:32:07;;;;;;;12.45;11.23;;;;;;;7.84;37.44;96162.38;5018150;28;20184;-72
2022/03/22 09:34:34;;;;;;;13.65;11.90;;;;;;;7.86;37.65;96160.13;5017834;28;20257;-72
2022/03/22 09:37:01;;;;;;;12.25;11.13;;;;;;;7.86;37.40;96144.47;5000543;28;20292;-71
2022/03/22 09:39:28;;;;;;;12.55;11.35;;;;;;;7.85;37.81;96153.03;5000526;28;20211;-71
2022/03/22 09:41:57;;;;;;;12.30;11.10;;;;;;;7.85;37.93;96142.84;5017419;28;20607;-71
2022/03/22 09:44:23;;;;;;;12.77;11.48;;;;;;;7.85;38.29;96139.28;5017655;28;20206;-71
2022/03/22 09:46:51;;;;;;;13.07;11.65;;;;;;;7.79;38.03;96144.06;5000183;28;20547;-71
2022/03/22 09:49:17;;;;;;;13.05;11.85;;;;;;;7.79;39.15;96141.31;5000367;28;20195;-71
2022/03/22 09:51:48;;;;;;;12.77;11.43;;;;;;;7.81;38.55;96143.78;5000542;28;20198;-70
2022/03/22 09:54:16;;;;;;;14.20;12.80;;;;;;;7.80;38.94;96142.94;5017484;28;20210;-71
2022/03/22 09:56:45;;;;;;;13.27;11.63;;;;;;;7.84;38.76;96135.72;5000250;28;20183;-71
2022/03/22 09:59:15;;;;;;;11.55;10.48;;;;;;;7.82;40.10;96146.19;4999851;28;20257;-71
2022/03/22 10:01:42;;;;;;;12.52;10.25;;;;;;;7.80;40.37;96131.16;4999994;28;20257;-70
2022/03/22 10:04:12;;;;;;;11.88;10.65;;;;;;;7.84;40.19;96126.66;4999908;28;20214;-71
2022/03/22 10:06:41;;;;;;;11.88;10.75;;;;;;;7.89;40.53;96130.13;5016672;28;20203;-71
2022/03/22 10:09:07;;;;;;;12.90;8.27;;;;;;;7.83;41.52;96125.84;4998185;28;20210;-71
2022/03/22 10:11:35;;;;;;;10.32;8.07;;;;;;;7.79;42.94;96108.38;4999906;28;20199;-72
2022/03/22 10:14:02;;;;;;;11.90;7.90;;;;;;;7.84;42.83;96119.25;5017029;28;20202;-72
2022/03/22 10:16:30;;;;;;;9.25;7.80;;;;;;;7.75;43.28;96098.31;5000393;28;20547;-72
2022/03/22 10:19:20;;;;;;;9.85;7.90;;;;;;;7.83;43.28;96094.81;5016951;28;20198;-72
2022/03/22 10:22:09;;;;;;;9.07;7.78;;;;;;;7.89;43.39;96093.59;5018115;28;20183;-69
2022/03/22 10:24:58;;;;;;;8.45;7.65;;;;;;;7.94;42.74;96088.78;5017203;28;20641;-69
2022/03/22 10:27:44;;;;;;;9.98;7.93;;;;;;;7.97;42.66;96082.66;5016867;28;20537;-72
2022/03/22 10:30:30;;;;;;;8.68;7.35;;;;;;;8.12;42.72;96089.72;5016635;28;20190;-70
2022/03/22 10:33:00;;;;;;;8.63;7.72;;;;;;;8.23;42.99;96081.22;5015999;28;20505;-70
2022/03/22 10:35:29;;;;;;;8.23;7.47;;;;;;;8.46;41.96;96071.03;5016033;28;20171;-71
2022/03/22 10:37:57;;;;;;;8.60;7.75;;;;;;;8.58;42.40;96072.09;4998951;28;20195;-70
2022/03/22 10:40:27;;;;;;;8.52;7.68;;;;;;;8.86;42.82;96071.88;4999332;28;20199;-69
2022/03/22 10:42:58;;;;;;;9.48;8.52;;;;;;;9.10;42.65;96072.31;4998854;28;20529;-69
2022/03/22 10:45:27;;;;;;;9.60;8.60;;;;;;;9.29;41.77;96080.28;4999061;28;20202;-74
2022/03/22 10:47:54;;;;;;;14.32;8.23;;;;;;;9.67;41.25;96060.44;5000592;28;20322;-74
2022/03/22 10:50:22;;;;;;;9.20;8.30;;;;;;;9.97;41.71;96055.91;5016581;28;20278;-74
2022/03/22 10:52:55;;;;;;;9.90;8.90;;;;;;;10.34;40.53;96042.59;4999334;28;20191;-73
2022/03/22 10:55:23;;;;;;;11.07;8.52;;;;;;;10.66;39.40;96038.44;4999557;28;20323;-74
2022/03/22 10:57:52;;;;;;;9.95;8.27;;;;;;;10.70;38.83;96033.88;4998732;28;20207;-74
2022/03/22 11:00:21;;;;;;;10.90;8.65;;;;;;;10.81;39.37;96034.31;5015858;28;20245;-74
2022/03/22 11:02:50;;;;;;;9.70;8.27;;;;;;;11.08;39.32;96027.56;4998807;28;20207;-74
2022/03/22 11:05:20;;;;;;;11.60;8.07;;;;;;;11.32;39.12;96030.50;4998853;28;20202;-74
2022/03/22 11:07:49;;;;;;;8.90;8.10;;;;;;;11.44;37.86;96027.03;5016085;28;20270;-74
2022/03/22 11:10:18;;;;;;;9.13;8.18;;;;;;;11.52;37.62;95998.53;5016717;28;20191;-74
2022/03/22 11:12:45;;;;;;;8.93;8.00;;;;;;;11.68;36.29;96006.19;5015830;28;20182;-73
2022/03/22 11:15:14;;;;;;;8.48;7.63;;;;;;;11.65;36.16;96001.34;4998528;28;20206;-72
2022/03/22 11:17:42;;;;;;;7.85;7.15;;;;;;;11.80;35.71;95992.44;4999016;28;20203;-69
2022/03/22 11:20:11;;;;;;;9.77;7.82;;;;;;;11.59;34.09;96005.47;4998974;28;20267;-69
2022/03/22 11:22:43;;;;;;;8.27;7.15;;;;;;;11.30;35.55;95991.38;4998770;28;20207;-69
2022/03/22 11:25:13;;;;;;;7.40;6.70;;;;;;;11.26;34.68;95978.56;4998609;28;20210;-72
2022/03/22 11:27:40;;;;;;;8.20;7.13;;;;;;;11.30;34.67;95983.09;4999101;28;20226;-72
2022/03/22 11:30:08;;;;;;;10.20;7.78;;;;;;;11.34;35.24;95980.47;5015739;28;20511;-71
2022/03/22 11:35:24;;;;;;;9.55;8.32;;;;;;;11.93;34.64;95965.69;4998584;28;20521;-72
2022/03/22 11:38:01;;;;;;;7.68;6.90;;;;;;;12.02;33.92;95967.25;5023764;23;20273;-71
2022/03/22 11:43:17;;;;;;;8.02;7.18;;;;;;;12.46;33.25;95958.47;4998180;28;20191;-72
2022/03/22 11:45:51;;;;;;;7.63;6.93;;;;;;;12.16;33.28;95964.16;5015754;28;20598;-71
2022/03/22 11:48:18;;;;;;;7.78;7.07;;;;;;;11.98;33.61;95949.72;4998248;28;20229;-71
2022/03/22 11:50:45;;;;;;;11.35;10.25;;;;;;;11.71;33.69;95953.84;4998390;28;20199;-70
2022/03/22 11:53:20;;;;;;;10.88;8.75;;;;;;;11.51;33.92;95955.47;5015508;28;20198;-70
2022/03/22 11:55:52;;;;;;;8.30;7.50;;;;;;;11.17;33.33;95944.66;4999022;28;20203;-70
2022/03/22 11:58:20;;;;;;;10.07;7.78;;;;;;;11.39;34.72;95940.78;4998553;28;20191;-70
2022/03/22 12:00:51;;;;;;;9.07;8.00;;;;;;;11.67;34.45;95943.81;4998514;28;20217;-70
2022/03/22 12:03:20;;;;;;;9.75;8.77;;;;;;;11.73;32.63;95942.47;5014972;28;20201;-70
2022/03/22 12:05:47;;;;;;;8.80;7.70;;;;;;;11.33;31.18;95935.47;5015443;28;20282;-70